sensor_id;sensor_type;location;lat;lon;timestamp;pressure;altitude;pressure_sealevel;temperature;humidity
26531;BME280;14201;43.188;24.160;2023-03-21T00:00:17;99493.66;;;10.57;63.54
26531;BME280;14201;43.188;24.160;2023-03-21T00:02:43;99483.72;;;10.69;63.72
26531;BME280;14201;43.188;24.160;2023-03-21T00:05:09;99491.75;;;10.75;65.52
26531;BME280;14201;43.188;24.160;2023-03-21T00:07:35;99492.34;;;10.68;65.25
26531;BME280;14201;43.188;24.160;2023-03-21T00:10:00;99482.75;;;10.67;64.43
26531;BME280;14201;43.188;24.160;2023-03-21T00:12:26;99474.16;;;10.70;64.19
26531;BME280;14201;43.188;24.160;2023-03-21T00:14:51;99467.56;;;10.78;63.81
26531;BME280;14201;43.188;24.160;2023-03-21T00:17:18;99478.31;;;10.87;63.61
26531;BME280;14201;43.188;24.160;2023-03-21T00:19:46;99478.22;;;10.84;63.11
26531;BME280;14201;43.188;24.160;2023-03-21T00:22:13;99477.38;;;10.85;63.04
26531;BME280;14201;43.188;24.160;2023-03-21T00:24:39;99486.13;;;10.87;62.70
26531;BME280;14201;43.188;24.160;2023-03-21T00:27:05;99451.81;;;10.75;62.83
26531;BME280;14201;43.188;24.160;2023-03-21T00:29:31;99471.41;;;10.88;62.56
26531;BME280;14201;43.188;24.160;2023-03-21T00:31:57;99479.47;;;10.94;62.49
26531;BME280;14201;43.188;24.160;2023-03-21T00:34:22;99459.72;;;11.00;61.99
26531;BME280;14201;43.188;24.160;2023-03-21T00:36:48;99463.16;;;10.99;62.50
26531;BME280;14201;43.188;24.160;2023-03-21T00:39:13;99459.72;;;11.00;62.39
26531;BME280;14201;43.188;24.160;2023-03-21T00:41:39;99463.16;;;10.99;61.93
26531;BME280;14201;43.188;24.160;2023-03-21T00:44:05;99462.97;;;10.95;60.71
26531;BME280;14201;43.188;24.160;2023-03-21T00:46:31;99467.06;;;10.88;61.23
26531;BME280;14201;43.188;24.160;2023-03-21T00:48:56;99469.38;;;10.80;61.77
26531;BME280;14201;43.188;24.160;2023-03-21T00:51:22;99467.50;;;10.76;61.73
26531;BME280;14201;43.188;24.160;2023-03-21T00:53:57;99456.06;;;10.73;63.23
26531;BME280;14201;43.188;24.160;2023-03-21T00:56:23;99464.03;;;10.77;63.16
26531;BME280;14201;43.188;24.160;2023-03-21T00:58:48;99471.16;;;10.81;63.37
26531;BME280;14201;43.188;24.160;2023-03-21T01:01:16;99473.28;;;10.69;64.65
26531;BME280;14201;43.188;24.160;2023-03-21T01:03:41;99472.31;;;10.44;65.06
26531;BME280;14201;43.188;24.160;2023-03-21T01:06:10;99475.34;;;10.55;64.07
26531;BME280;14201;43.188;24.160;2023-03-21T01:08:40;99465.31;;;10.64;63.30
26531;BME280;14201;43.188;24.160;2023-03-21T01:11:10;99466.03;;;10.60;64.48
26531;BME280;14201;43.188;24.160;2023-03-21T01:13:36;99471.75;;;10.74;63.61
26531;BME280;14201;43.188;24.160;2023-03-21T01:16:04;99468.38;;;10.77;64.54
26531;BME280;14201;43.188;24.160;2023-03-21T01:18:30;99463.34;;;10.81;63.83
26531;BME280;14201;43.188;24.160;2023-03-21T01:20:58;99472.16;;;10.85;63.59
26531;BME280;14201;43.188;24.160;2023-03-21T01:23:26;99472.16;;;10.85;62.93
26531;BME280;14201;43.188;24.160;2023-03-21T01:25:53;99471.50;;;10.91;63.82
26531;BME280;14201;43.188;24.160;2023-03-21T01:28:19;99471.50;;;10.91;63.66
26531;BME280;14201;43.188;24.160;2023-03-21T01:30:49;99468.84;;;10.89;64.40
26531;BME280;14201;43.188;24.160;2023-03-21T01:33:15;99446.03;;;10.83;63.96
26531;BME280;14201;43.188;24.160;2023-03-21T01:35:41;99458.25;;;10.84;65.30
26531;BME280;14201;43.188;24.160;2023-03-21T01:38:07;99470.09;;;10.76;63.76
26531;BME280;14201;43.188;24.160;2023-03-21T01:40:34;99468.25;;;10.74;63.31
26531;BME280;14201;43.188;24.160;2023-03-21T01:42:59;99463.66;;;10.67;62.35
26531;BME280;14201;43.188;24.160;2023-03-21T01:48:28;99468.56;;;10.59;63.74
26531;BME280;14201;43.188;24.160;2023-03-21T01:50:54;99464.63;;;10.48;66.85
26531;BME280;14201;43.188;24.160;2023-03-21T01:53:22;99465.09;;;10.37;65.74
26531;BME280;14201;43.188;24.160;2023-03-21T01:55:56;99472.78;;;10.34;65.30
26531;BME280;14201;43.188;24.160;2023-03-21T01:58:23;99470.94;;;10.32;64.80
26531;BME280;14201;43.188;24.160;2023-03-21T02:00:49;99468.44;;;10.35;65.49
26531;BME280;14201;43.188;24.160;2023-03-21T02:03:16;99474.97;;;10.46;66.64
26531;BME280;14201;43.188;24.160;2023-03-21T02:08:30;99474.28;;;10.50;66.11
26531;BME280;14201;43.188;24.160;2023-03-21T02:10:56;99483.66;;;10.45;65.43
26531;BME280;14201;43.188;24.160;2023-03-21T02:13:22;99483.97;;;10.54;66.33
26531;BME280;14201;43.188;24.160;2023-03-21T02:16:05;99474.50;;;10.56;66.46
26531;BME280;14201;43.188;24.160;2023-03-21T02:18:52;99480.22;;;10.69;66.31
26531;BME280;14201;43.188;24.160;2023-03-21T02:27:24;99479.22;;;10.65;66.42
26531;BME280;14201;43.188;24.160;2023-03-21T02:36:12;99486.16;;;10.64;65.66
26531;BME280;14201;43.188;24.160;2023-03-21T02:38:37;99486.00;;;10.61;64.38
26531;BME280;14201;43.188;24.160;2023-03-21T02:41:16;99482.09;;;10.50;65.17
26531;BME280;14201;43.188;24.160;2023-03-21T02:43:58;99483.41;;;10.61;64.52
26531;BME280;14201;43.188;24.160;2023-03-21T02:46:31;99481.50;;;10.57;65.54
26531;BME280;14201;43.188;24.160;2023-03-21T02:51:33;99474.03;;;10.44;66.95
26531;BME280;14201;43.188;24.160;2023-03-21T02:54:05;99485.78;;;10.55;65.78
26531;BME280;14201;43.188;24.160;2023-03-21T02:56:33;99485.78;;;10.55;65.22
26531;BME280;14201;43.188;24.160;2023-03-21T02:59:02;99476.59;;;10.65;65.57
26531;BME280;14201;43.188;24.160;2023-03-21T03:01:28;99478.03;;;10.57;65.19
26531;BME280;14201;43.188;24.160;2023-03-21T03:03:54;99479.69;;;10.55;65.88
26531;BME280;14201;43.188;24.160;2023-03-21T03:06:28;99474.09;;;10.68;66.15
26531;BME280;14201;43.188;24.160;2023-03-21T03:09:06;99478.38;;;10.66;66.83
26531;BME280;14201;43.188;24.160;2023-03-21T03:11:39;99481.69;;;10.62;66.38
26531;BME280;14201;43.188;24.160;2023-03-21T03:19:13;99470.03;;;10.31;64.91
26531;BME280;14201;43.188;24.160;2023-03-21T03:21:42;99472.38;;;10.25;65.61
26531;BME280;14201;43.188;24.160;2023-03-21T03:29:17;99463.50;;;10.41;65.35
26531;BME280;14201;43.188;24.160;2023-03-21T03:34:28;99457.22;;;10.36;64.98
26531;BME280;14201;43.188;24.160;2023-03-21T03:36:58;99468.13;;;10.48;65.40
26531;BME280;14201;43.188;24.160;2023-03-21T03:39:32;99451.75;;;10.30;65.48
26531;BME280;14201;43.188;24.160;2023-03-21T03:42:07;99464.31;;;9.98;66.96
26531;BME280;14201;43.188;24.160;2023-03-21T03:44:37;99473.06;;;10.00;67.61
26531;BME280;14201;43.188;24.160;2023-03-21T03:49:36;99471.00;;;10.12;66.98
26531;BME280;14201;43.188;24.160;2023-03-21T03:52:19;99465.19;;;10.19;66.59
26531;BME280;14201;43.188;24.160;2023-03-21T03:54:48;99476.94;;;10.10;65.68
26531;BME280;14201;43.188;24.160;2023-03-21T03:57:16;99481.44;;;9.72;67.96
26531;BME280;14201;43.188;24.160;2023-03-21T03:59:44;99481.50;;;9.73;67.26
26531;BME280;14201;43.188;24.160;2023-03-21T04:02:11;99477.13;;;9.72;67.73
26531;BME280;14201;43.188;24.160;2023-03-21T04:04:37;99472.59;;;9.68;67.47
26531;BME280;14201;43.188;24.160;2023-03-21T04:07:04;99479.97;;;9.78;66.95
26531;BME280;14201;43.188;24.160;2023-03-21T04:09:31;99471.22;;;9.76;67.35
26531;BME280;14201;43.188;24.160;2023-03-21T04:11:57;99470.00;;;9.68;67.42
26531;BME280;14201;43.188;24.160;2023-03-21T04:14:23;99476.78;;;9.64;67.69
26531;BME280;14201;43.188;24.160;2023-03-21T04:16:49;99474.25;;;9.66;67.96
26531;BME280;14201;43.188;24.160;2023-03-21T04:19:16;99469.38;;;9.74;67.72
26531;BME280;14201;43.188;24.160;2023-03-21T04:21:43;99472.88;;;9.74;67.29
26531;BME280;14201;43.188;24.160;2023-03-21T04:24:08;99466.72;;;9.72;67.08
26531;BME280;14201;43.188;24.160;2023-03-21T04:26:36;99467.53;;;9.71;66.79
26531;BME280;14201;43.188;24.160;2023-03-21T04:29:02;99477.66;;;9.65;67.21
26531;BME280;14201;43.188;24.160;2023-03-21T04:31:29;99487.69;;;9.56;67.64
26531;BME280;14201;43.188;24.160;2023-03-21T04:34:03;99475.50;;;9.55;67.50
26531;BME280;14201;43.188;24.160;2023-03-21T04:36:35;99490.28;;;9.56;67.43
26531;BME280;14201;43.188;24.160;2023-03-21T04:39:05;99494.47;;;9.52;67.88
26531;BME280;14201;43.188;24.160;2023-03-21T04:41:37;99494.50;;;9.54;67.61
26531;BME280;14201;43.188;24.160;2023-03-21T04:44:03;99500.13;;;9.43;68.28
26531;BME280;14201;43.188;24.160;2023-03-21T04:46:29;99505.31;;;9.43;68.15
26531;BME280;14201;43.188;24.160;2023-03-21T04:48:54;99495.63;;;9.39;67.70
26531;BME280;14201;43.188;24.160;2023-03-21T04:51:20;99500.00;;;9.40;67.53
26531;BME280;14201;43.188;24.160;2023-03-21T04:53:45;99500.91;;;9.41;68.12
26531;BME280;14201;43.188;24.160;2023-03-21T04:56:14;99489.81;;;9.25;68.68
26531;BME280;14201;43.188;24.160;2023-03-21T04:58:40;99513.38;;;9.30;68.69
26531;BME280;14201;43.188;24.160;2023-03-21T05:01:06;99516.09;;;8.94;69.30
26531;BME280;14201;43.188;24.160;2023-03-21T05:03:32;99518.78;;;8.96;69.20
26531;BME280;14201;43.188;24.160;2023-03-21T05:06:07;99510.66;;;9.07;69.21
26531;BME280;14201;43.188;24.160;2023-03-21T05:08:34;99511.06;;;9.17;69.37
26531;BME280;14201;43.188;24.160;2023-03-21T05:11:01;99510.69;;;9.27;69.46
26531;BME280;14201;43.188;24.160;2023-03-21T05:13:26;99498.38;;;9.23;69.75
26531;BME280;14201;43.188;24.160;2023-03-21T05:15:52;99503.16;;;9.33;69.64
26531;BME280;14201;43.188;24.160;2023-03-21T05:18:18;99504.03;;;9.34;70.09
26531;BME280;14201;43.188;24.160;2023-03-21T05:20:50;99517.56;;;9.26;69.61
26531;BME280;14201;43.188;24.160;2023-03-21T05:23:23;99515.72;;;9.43;70.56
26531;BME280;14201;43.188;24.160;2023-03-21T05:25:49;99517.91;;;9.54;70.07
26531;BME280;14201;43.188;24.160;2023-03-21T05:28:15;99518.72;;;9.72;69.39
26531;BME280;14201;43.188;24.160;2023-03-21T05:30:44;99519.59;;;9.73;69.63
26531;BME280;14201;43.188;24.160;2023-03-21T05:33:11;99513.94;;;9.81;69.41
26531;BME280;14201;43.188;24.160;2023-03-21T05:35:37;99519.16;;;10.02;69.03
26531;BME280;14201;43.188;24.160;2023-03-21T05:38:03;99526.59;;;10.14;69.91
26531;BME280;14201;43.188;24.160;2023-03-21T05:40:29;99520.00;;;10.22;69.13
26531;BME280;14201;43.188;24.160;2023-03-21T05:42:54;99528.50;;;10.18;68.19
26531;BME280;14201;43.188;24.160;2023-03-21T05:45:20;99527.66;;;10.19;68.14
26531;BME280;14201;43.188;24.160;2023-03-21T05:47:46;99530.41;;;10.22;68.00
26531;BME280;14201;43.188;24.160;2023-03-21T05:50:11;99527.41;;;10.13;68.29
26531;BME280;14201;43.188;24.160;2023-03-21T05:52:38;99519.44;;;10.30;67.89
26531;BME280;14201;43.188;24.160;2023-03-21T05:55:04;99521.22;;;10.31;67.72
26531;BME280;14201;43.188;24.160;2023-03-21T05:57:30;99519.28;;;10.27;68.33
26531;BME280;14201;43.188;24.160;2023-03-21T05:59:59;99518.06;;;10.38;68.34
26531;BME280;14201;43.188;24.160;2023-03-21T06:02:25;99512.16;;;10.42;68.14
26531;BME280;14201;43.188;24.160;2023-03-21T06:04:51;99512.13;;;10.63;68.26
26531;BME280;14201;43.188;24.160;2023-03-21T06:07:17;99511.72;;;10.97;67.30
26531;BME280;14201;43.188;24.160;2023-03-21T06:09:42;99507.34;;;11.19;66.43
26531;BME280;14201;43.188;24.160;2023-03-21T06:12:08;99507.78;;;11.09;66.69
26531;BME280;14201;43.188;24.160;2023-03-21T06:14:34;99499.38;;;11.38;67.65
26531;BME280;14201;43.188;24.160;2023-03-21T06:16:59;99491.91;;;11.73;65.48
26531;BME280;14201;43.188;24.160;2023-03-21T06:19:25;99485.00;;;11.99;63.66
26531;BME280;14201;43.188;24.160;2023-03-21T06:21:50;99478.81;;;12.23;63.36
26531;BME280;14201;43.188;24.160;2023-03-21T06:24:16;99483.84;;;12.44;62.83
26531;BME280;14201;43.188;24.160;2023-03-21T06:26:42;99481.41;;;12.77;61.51
26531;BME280;14201;43.188;24.160;2023-03-21T06:29:09;99481.69;;;12.87;62.02
26531;BME280;14201;43.188;24.160;2023-03-21T06:31:35;99477.34;;;13.16;61.69
26531;BME280;14201;43.188;24.160;2023-03-21T06:34:00;99468.53;;;13.43;61.19
26531;BME280;14201;43.188;24.160;2023-03-21T06:36:26;99479.47;;;13.59;61.42
26531;BME280;14201;43.188;24.160;2023-03-21T06:38:51;99454.03;;;13.54;61.08
26531;BME280;14201;43.188;24.160;2023-03-21T06:41:17;99472.47;;;13.92;60.61
26531;BME280;14201;43.188;24.160;2023-03-21T06:43:43;99470.69;;;14.24;59.95
26531;BME280;14201;43.188;24.160;2023-03-21T06:46:09;99475.91;;;14.59;57.29
26531;BME280;14201;43.188;24.160;2023-03-21T06:48:35;99474.53;;;14.75;57.85
26531;BME280;14201;43.188;24.160;2023-03-21T06:51:03;99477.03;;;15.08;56.87
26531;BME280;14201;43.188;24.160;2023-03-21T06:53:29;99481.09;;;15.36;57.20
26531;BME280;14201;43.188;24.160;2023-03-21T06:55:56;99476.59;;;15.73;55.34
26531;BME280;14201;43.188;24.160;2023-03-21T06:58:22;99469.47;;;16.17;54.56
26531;BME280;14201;43.188;24.160;2023-03-21T07:00:48;99472.75;;;16.57;54.25
26531;BME280;14201;43.188;24.160;2023-03-21T07:03:14;99470.44;;;16.78;51.77
26531;BME280;14201;43.188;24.160;2023-03-21T07:05:41;99477.84;;;17.02;50.38
26531;BME280;14201;43.188;24.160;2023-03-21T07:08:07;99479.59;;;17.03;49.27
26531;BME280;14201;43.188;24.160;2023-03-21T07:10:42;99470.75;;;16.98;50.24
26531;BME280;14201;43.188;24.160;2023-03-21T07:13:09;99480.84;;;17.33;48.84
26531;BME280;14201;43.188;24.160;2023-03-21T07:15:34;99477.53;;;17.49;47.00
26531;BME280;14201;43.188;24.160;2023-03-21T07:18:06;99483.00;;;17.65;47.08
26531;BME280;14201;43.188;24.160;2023-03-21T07:20:33;99474.38;;;17.83;48.74
26531;BME280;14201;43.188;24.160;2023-03-21T07:22:58;99473.66;;;17.92;48.76
26531;BME280;14201;43.188;24.160;2023-03-21T07:25:25;99480.88;;;18.16;45.92
26531;BME280;14201;43.188;24.160;2023-03-21T07:27:51;99478.34;;;18.28;46.63
26531;BME280;14201;43.188;24.160;2023-03-21T07:30:17;99477.69;;;18.54;44.37
26531;BME280;14201;43.188;24.160;2023-03-21T07:32:42;99476.09;;;18.77;43.63
26531;BME280;14201;43.188;24.160;2023-03-21T07:35:11;99483.25;;;18.92;42.74
26531;BME280;14201;43.188;24.160;2023-03-21T07:37:37;99483.25;;;18.92;46.13
26531;BME280;14201;43.188;24.160;2023-03-21T07:40:03;99486.88;;;19.10;45.58
26531;BME280;14201;43.188;24.160;2023-03-21T07:42:35;99489.53;;;19.19;45.57
26531;BME280;14201;43.188;24.160;2023-03-21T07:45:00;99476.47;;;19.45;44.98
26531;BME280;14201;43.188;24.160;2023-03-21T07:47:26;99480.03;;;19.59;44.83
26531;BME280;14201;43.188;24.160;2023-03-21T07:49:53;99471.28;;;19.73;44.96
26531;BME280;14201;43.188;24.160;2023-03-21T07:52:18;99478.38;;;19.92;42.48
26531;BME280;14201;43.188;24.160;2023-03-21T07:54:44;99473.06;;;19.84;42.14
26531;BME280;14201;43.188;24.160;2023-03-21T07:57:09;99478.34;;;19.78;42.00
26531;BME280;14201;43.188;24.160;2023-03-21T07:59:35;99477.38;;;19.65;43.66
26531;BME280;14201;43.188;24.160;2023-03-21T08:02:00;99483.59;;;19.71;42.64
26531;BME280;14201;43.188;24.160;2023-03-21T08:04:27;99482.66;;;19.59;44.64
26531;BME280;14201;43.188;24.160;2023-03-21T08:06:52;99479.16;;;19.63;43.85
26531;BME280;14201;43.188;24.160;2023-03-21T08:09:18;99480.03;;;19.65;43.37
26531;BME280;14201;43.188;24.160;2023-03-21T08:11:43;99483.50;;;19.46;42.78
26531;BME280;14201;43.188;24.160;2023-03-21T08:14:09;99490.53;;;19.41;43.69
26531;BME280;14201;43.188;24.160;2023-03-21T08:16:34;99485.28;;;19.47;44.72
26531;BME280;14201;43.188;24.160;2023-03-21T08:18:59;99479.09;;;19.42;44.93
26531;BME280;14201;43.188;24.160;2023-03-21T08:21:25;99485.09;;;19.07;44.90
26531;BME280;14201;43.188;24.160;2023-03-21T08:23:51;99483.91;;;18.63;46.89
26531;BME280;14201;43.188;24.160;2023-03-21T08:26:17;99472.59;;;18.77;47.02
26531;BME280;14201;43.188;24.160;2023-03-21T08:28:43;99475.31;;;18.84;47.28
26531;BME280;14201;43.188;24.160;2023-03-21T08:31:09;99484.16;;;18.94;47.08
26531;BME280;14201;43.188;24.160;2023-03-21T08:33:35;99476.31;;;19.13;48.06
26531;BME280;14201;43.188;24.160;2023-03-21T08:36:01;99472.91;;;19.37;47.95
26531;BME280;14201;43.188;24.160;2023-03-21T08:38:27;99478.25;;;19.51;47.46
26531;BME280;14201;43.188;24.160;2023-03-21T08:40:56;99483.56;;;19.69;46.31
26531;BME280;14201;43.188;24.160;2023-03-21T08:43:22;99483.66;;;19.88;47.03
26531;BME280;14201;43.188;24.160;2023-03-21T08:45:47;99482.81;;;20.09;44.98
26531;BME280;14201;43.188;24.160;2023-03-21T08:48:13;99486.34;;;20.14;45.47
26531;BME280;14201;43.188;24.160;2023-03-21T08:50:38;99478.41;;;20.21;44.82
26531;BME280;14201;43.188;24.160;2023-03-21T08:53:04;99478.41;;;20.46;44.37
26531;BME280;14201;43.188;24.160;2023-03-21T08:55:29;99475.78;;;20.69;42.63
26531;BME280;14201;43.188;24.160;2023-03-21T08:57:57;99473.13;;;20.71;42.25
26531;BME280;14201;43.188;24.160;2023-03-21T09:00:22;99469.59;;;20.30;42.82
26531;BME280;14201;43.188;24.160;2023-03-21T09:02:48;99460.78;;;20.10;43.58
26531;BME280;14201;43.188;24.160;2023-03-21T09:05:15;99466.06;;;19.99;44.56
26531;BME280;14201;43.188;24.160;2023-03-21T09:07:41;99469.59;;;19.99;45.33
26531;BME280;14201;43.188;24.160;2023-03-21T09:10:07;99475.78;;;20.11;45.09
26531;BME280;14201;43.188;24.160;2023-03-21T09:12:34;99470.47;;;20.17;45.40
26531;BME280;14201;43.188;24.160;2023-03-21T09:14:59;99466.06;;;20.37;45.61
26531;BME280;14201;43.188;24.160;2023-03-21T09:17:27;99456.34;;;20.39;45.51
26531;BME280;14201;43.188;24.160;2023-03-21T09:19:52;99459.00;;;20.55;45.05
26531;BME280;14201;43.188;24.160;2023-03-21T09:22:18;99453.75;;;20.61;43.92
26531;BME280;14201;43.188;24.160;2023-03-21T09:24:47;99450.19;;;20.71;43.92
26531;BME280;14201;43.188;24.160;2023-03-21T09:27:13;99455.50;;;20.28;41.60
26531;BME280;14201;43.188;24.160;2023-03-21T09:29:41;99455.47;;;20.50;43.27
26531;BME280;14201;43.188;24.160;2023-03-21T09:32:09;99442.25;;;20.54;43.04
26531;BME280;14201;43.188;24.160;2023-03-21T09:34:35;99450.19;;;20.57;42.42
26531;BME280;14201;43.188;24.160;2023-03-21T09:37:03;99453.72;;;20.62;43.06
26531;BME280;14201;43.188;24.160;2023-03-21T09:39:40;99453.69;;;20.55;42.14
26531;BME280;14201;43.188;24.160;2023-03-21T09:42:16;99466.94;;;20.53;42.74
26531;BME280;14201;43.188;24.160;2023-03-21T09:47:18;99459.88;;;20.75;42.95
26531;BME280;14201;43.188;24.160;2023-03-21T09:49:49;99458.09;;;20.76;42.13
26531;BME280;14201;43.188;24.160;2023-03-21T09:52:28;99466.06;;;20.76;43.06
26531;BME280;14201;43.188;24.160;2023-03-21T09:54:54;99457.25;;;20.77;42.31
26531;BME280;14201;43.188;24.160;2023-03-21T09:59:46;99463.41;;;20.80;42.35
26531;BME280;14201;43.188;24.160;2023-03-21T10:02:36;99459.88;;;20.84;41.96
26531;BME280;14201;43.188;24.160;2023-03-21T10:05:01;99458.09;;;20.87;42.31
26531;BME280;14201;43.188;24.160;2023-03-21T10:07:28;99459.00;;;20.75;41.77
26531;BME280;14201;43.188;24.160;2023-03-21T10:09:56;99452.81;;;20.87;42.79
26531;BME280;14201;43.188;24.160;2023-03-21T10:12:23;99459.81;;;21.03;42.68
26531;BME280;14201;43.188;24.160;2023-03-21T10:14:54;99458.91;;;21.09;42.00
26531;BME280;14201;43.188;24.160;2023-03-21T10:19:54;99449.16;;;21.18;41.82
26531;BME280;14201;43.188;24.160;2023-03-21T10:22:21;99444.69;;;21.28;42.16
26531;BME280;14201;43.188;24.160;2023-03-21T10:24:46;99443.81;;;21.24;42.05
26531;BME280;14201;43.188;24.160;2023-03-21T10:27:11;99443.78;;;21.34;41.95
26531;BME280;14201;43.188;24.160;2023-03-21T10:29:42;99443.75;;;21.40;41.93
26531;BME280;14201;43.188;24.160;2023-03-21T10:32:12;99447.31;;;21.45;41.32
26531;BME280;14201;43.188;24.160;2023-03-21T10:34:45;99441.97;;;21.53;41.84
26531;BME280;14201;43.188;24.160;2023-03-21T10:37:12;99442.88;;;21.39;41.32
26531;BME280;14201;43.188;24.160;2023-03-21T10:39:45;99437.59;;;21.42;41.67
26531;BME280;14201;43.188;24.160;2023-03-21T10:42:19;99426.06;;;21.51;41.71
26531;BME280;14201;43.188;24.160;2023-03-21T10:44:47;99419.00;;;21.53;41.49
26531;BME280;14201;43.188;24.160;2023-03-21T10:47:18;99411.03;;;21.58;41.74
26531;BME280;14201;43.188;24.160;2023-03-21T10:49:43;99404.91;;;21.48;43.11
26531;BME280;14201;43.188;24.160;2023-03-21T10:52:10;99407.47;;;21.62;42.30
26531;BME280;14201;43.188;24.160;2023-03-21T10:54:38;99401.25;;;21.61;42.92
26531;BME280;14201;43.188;24.160;2023-03-21T10:57:13;99401.28;;;21.60;42.57
26531;BME280;14201;43.188;24.160;2023-03-21T10:59:44;99397.72;;;21.66;42.79
26531;BME280;14201;43.188;24.160;2023-03-21T11:02:24;99383.56;;;21.67;42.74
26531;BME280;14201;43.188;24.160;2023-03-21T11:04:51;99387.00;;;21.81;42.90
26531;BME280;14201;43.188;24.160;2023-03-21T11:07:18;99384.31;;;21.87;41.58
26531;BME280;14201;43.188;24.160;2023-03-21T11:09:47;99391.47;;;21.76;42.27
26531;BME280;14201;43.188;24.160;2023-03-21T11:12:14;99372.84;;;21.79;42.13
26531;BME280;14201;43.188;24.160;2023-03-21T11:19:47;99361.47;;;21.66;42.19
26531;BME280;14201;43.188;24.160;2023-03-21T11:22:13;99362.50;;;21.47;42.42
26531;BME280;14201;43.188;24.160;2023-03-21T11:24:39;99354.56;;;21.40;42.37
26531;BME280;14201;43.188;24.160;2023-03-21T11:27:06;99352.78;;;21.46;42.97
26531;BME280;14201;43.188;24.160;2023-03-21T11:29:35;99350.13;;;21.44;42.28
26531;BME280;14201;43.188;24.160;2023-03-21T11:32:22;99358.09;;;21.41;42.68
26531;BME280;14201;43.188;24.160;2023-03-21T11:34:49;99366.94;;;21.45;43.34
26531;BME280;14201;43.188;24.160;2023-03-21T11:37:19;99357.16;;;21.54;42.52
26531;BME280;14201;43.188;24.160;2023-03-21T11:39:44;99359.00;;;21.37;42.61
26531;BME280;14201;43.188;24.160;2023-03-21T11:44:56;99361.75;;;21.18;42.60
26531;BME280;14201;43.188;24.160;2023-03-21T11:47:22;99362.59;;;21.20;42.85
26531;BME280;14201;43.188;24.160;2023-03-21T11:49:47;99357.28;;;21.27;42.73
26531;BME280;14201;43.188;24.160;2023-03-21T11:52:16;99358.19;;;21.26;43.31
26531;BME280;14201;43.188;24.160;2023-03-21T11:57:27;99351.16;;;21.18;43.50
26531;BME280;14201;43.188;24.160;2023-03-21T12:00:17;99358.19;;;21.22;43.50
26531;BME280;14201;43.188;24.160;2023-03-21T12:02:57;99350.19;;;21.32;41.88
26531;BME280;14201;43.188;24.160;2023-03-21T12:05:36;99346.66;;;21.30;42.57
26531;BME280;14201;43.188;24.160;2023-03-21T12:08:11;99347.53;;;21.33;42.50
26531;BME280;14201;43.188;24.160;2023-03-21T12:10:56;99350.13;;;21.47;42.27
26531;BME280;14201;43.188;24.160;2023-03-21T12:13:29;99349.25;;;21.43;42.78
26531;BME280;14201;43.188;24.160;2023-03-21T12:16:02;99342.16;;;21.50;42.76
26531;BME280;14201;43.188;24.160;2023-03-21T12:21:22;99337.69;;;21.55;41.14
26531;BME280;14201;43.188;24.160;2023-03-21T12:24:02;99346.47;;;21.65;42.35
26531;BME280;14201;43.188;24.160;2023-03-21T12:26:32;99341.88;;;21.86;42.36
26531;BME280;14201;43.188;24.160;2023-03-21T12:36:48;99323.38;;;22.66;42.12
26531;BME280;14201;43.188;24.160;2023-03-21T12:39:20;99317.09;;;22.76;42.16
26531;BME280;14201;43.188;24.160;2023-03-21T12:47:31;99296.06;;;22.56;40.89
26531;BME280;14201;43.188;24.160;2023-03-21T12:50:07;99303.31;;;22.45;40.61
26531;BME280;14201;43.188;24.160;2023-03-21T12:52:39;99310.47;;;22.37;41.67
26531;BME280;14201;43.188;24.160;2023-03-21T12:55:19;99299.81;;;22.41;41.29
26531;BME280;14201;43.188;24.160;2023-03-21T12:57:55;99305.03;;;22.49;41.89
26531;BME280;14201;43.188;24.160;2023-03-21T13:00:34;99303.34;;;22.42;41.21
26531;BME280;14201;43.188;24.160;2023-03-21T13:03:20;99303.31;;;22.44;41.33
26531;BME280;14201;43.188;24.160;2023-03-21T13:05:56;99295.47;;;22.34;41.45
26531;BME280;14201;43.188;24.160;2023-03-21T13:11:04;99288.41;;;22.32;41.30
26531;BME280;14201;43.188;24.160;2023-03-21T13:16:10;99289.50;;;22.08;41.04
26531;BME280;14201;43.188;24.160;2023-03-21T13:21:44;99283.47;;;21.93;40.56
26531;BME280;14201;43.188;24.160;2023-03-21T13:29:52;99273.78;;;21.89;41.06
26531;BME280;14201;43.188;24.160;2023-03-21T13:32:40;99272.09;;;21.80;40.84
26531;BME280;14201;43.188;24.160;2023-03-21T13:35:21;99266.13;;;21.57;40.63
26531;BME280;14201;43.188;24.160;2023-03-21T13:40:42;99271.53;;;21.46;41.19
26531;BME280;14201;43.188;24.160;2023-03-21T13:43:38;99268.91;;;21.35;41.42
26531;BME280;14201;43.188;24.160;2023-03-21T13:59:40;99260.22;;;21.19;41.97
26531;BME280;14201;43.188;24.160;2023-03-21T14:04:39;99258.47;;;21.15;41.01
26531;BME280;14201;43.188;24.160;2023-03-21T14:07:15;99261.13;;;21.11;41.47
26531;BME280;14201;43.188;24.160;2023-03-21T14:09:49;99255.81;;;21.14;41.96
26531;BME280;14201;43.188;24.160;2023-03-21T14:12:21;99243.50;;;21.10;41.28
26531;BME280;14201;43.188;24.160;2023-03-21T14:14:53;99250.59;;;21.08;41.36
26531;BME280;14201;43.188;24.160;2023-03-21T14:17:30;99250.63;;;21.01;41.04
26531;BME280;14201;43.188;24.160;2023-03-21T14:22:54;99241.81;;;20.96;40.90
26531;BME280;14201;43.188;24.160;2023-03-21T14:25:22;99248.06;;;20.86;41.29
26531;BME280;14201;43.188;24.160;2023-03-21T14:27:52;99241.00;;;20.83;41.21
26531;BME280;14201;43.188;24.160;2023-03-21T14:30:26;99234.88;;;20.77;40.76
26531;BME280;14201;43.188;24.160;2023-03-21T14:32:55;99235.81;;;20.65;41.32
26531;BME280;14201;43.188;24.160;2023-03-21T14:35:21;99239.34;;;20.62;42.23
26531;BME280;14201;43.188;24.160;2023-03-21T14:37:47;99235.81;;;20.57;41.47
26531;BME280;14201;43.188;24.160;2023-03-21T14:40:23;99234.06;;;20.55;41.62
26531;BME280;14201;43.188;24.160;2023-03-21T14:42:50;99232.34;;;20.44;41.99